• Join FlightAware (Why Join?)
  • Login
  • US Flag 
02:47AM EDT


 

Airport Tracker/Info


-or-


 

Live Flight TrackerFlight Track Log ✈ N1944E ✈ 22-Jun-2013 ✈ KSLC - KCOD

Flight Track Log - Related Links

Times and Time Zones

All times are in EDT time to prevent confusion due to time zone crossing. See the N1944E flight status page for this flight to view local times or setup timezone preferences in your user account.

Time Position Orientation Groundspeed Altitude Reporting Facility
EDT Latitude Longitude Course Direction KTS MPH feet Rate Location/Type
11:09AM 40.8167 -111.9672 353° North 112 129 5,700  Level Salt Lake Center
11:10AM 40.8419 -111.9731 350° North 109 125 6,800 1,320 Climbing Salt Lake Center
11:11AM 40.8714 -111.9914 335° Northwest 116 133 8,200 1,320 Climbing Salt Lake Center
11:11AM 40.8983 -112.0078 335° Northwest 116 133 9,400 900 Climbing Salt Lake Center
11:12AM 40.9328 -112.0300 334° Northwest 138 159 10,000 1,080 Climbing Salt Lake Center
11:13AM 40.9692 -112.0517 336° Northwest 136 157 11,600 1,440 Climbing Salt Lake Center
11:14AM 40.9961 -112.0681 335° Northwest 130 150 12,800 1,200 Climbing Salt Lake Center
11:15AM 41.0153 -112.0778 339° North 131 151 13,400 1,200 Climbing Salt Lake Center
11:16AM 41.0514 -112.0942 341° North 135 155 14,700 1,200 Climbing Salt Lake Center
11:17AM 41.0853 -112.0589 38° Northeast 159 183 15,900 1,020 Climbing Salt Lake Center
11:18AM 41.1239 -112.0250 33° Northeast 166 191 16,800 900 Climbing Salt Lake Center
11:19AM 41.1667 -111.9942 28° Northeast 173 199 17,800 960 Climbing Salt Lake Center
11:20AM 41.2089 -111.9611 30° Northeast 176 203 18,900 540 Climbing Salt Lake Center
11:21AM 41.2561 -111.9214 32° Northeast 199 229 19,000  Climbing Salt Lake Center
11:22AM 41.3214 -111.8681 32° Northeast 226 260 19,000  Level Salt Lake Center
11:23AM 41.3756 -111.8192 34° Northeast 235 270 19,000  Level Salt Lake Center
11:24AM 41.4314 -111.7703 33° Northeast 238 274 19,000  Level Salt Lake Center
11:25AM 41.4872 -111.7225 33° Northeast 238 274 19,000  Level Salt Lake Center
11:26AM 41.5444 -111.6758 31° Northeast 240 276 19,000  Level Salt Lake Center
11:27AM 41.6008 -111.6292 32° Northeast 240 276 19,000  Level Salt Lake Center
11:28AM 41.6711 -111.5731 31° Northeast 243 280 19,000  Level Salt Lake Center
11:29AM 41.7283 -111.5244 32° Northeast 245 282 19,000  Level Salt Lake Center
11:30AM 41.7856 -111.4758 32° Northeast 244 281 19,000  Level Salt Lake Center
11:31AM 41.8425 -111.4272 32° Northeast 243 280 19,000  Level Salt Lake Center
11:32AM 41.8992 -111.3794 32° Northeast 242 278 19,000  Level Salt Lake Center
11:33AM 41.9567 -111.3281 34° Northeast 247 284 19,000  Level Salt Lake Center
11:35AM 42.0261 -111.2692 32° Northeast 247 284 19,000  Level Salt Lake Center
11:36AM 42.0847 -111.2183 33° Northeast 251 289 19,000  Level Salt Lake Center
11:37AM 42.1425 -111.1697 32° Northeast 248 285 19,000  Level Salt Lake Center
11:38AM 42.2003 -111.1208 32° Northeast 245 282 19,000  Level Salt Lake Center
11:39AM 42.2583 -111.0700 33° Northeast 250 288 19,000  Level Salt Lake Center
11:40AM 42.3164 -111.0194 33° Northeast 247 284 19,000  Level Salt Lake Center
11:41AM 42.3856 -110.9606 32° Northeast 246 283 19,000  Level Salt Lake Center
11:42AM 42.4453 -110.9075 33° Northeast 249 287 19,000  Level Salt Lake Center
11:43AM 42.5006 -110.8592 33° Northeast 248 285 19,000  Level Salt Lake Center
11:44AM 42.5650 -110.8008 34° Northeast 251 289 19,000  Level Salt Lake Center
11:45AM 42.6208 -110.7514 33° Northeast 251 289 19,000  Level Salt Lake Center
11:46AM 42.6758 -110.7044 32° Northeast 247 284 19,000  Level Salt Lake Center
11:47AM 42.7419 -110.6414 35° Northeast 260 299 19,000  Level Salt Lake Center
11:48AM 42.7994 -110.5919 32° Northeast 250 288 19,100  Climbing Salt Lake Center
11:49AM 42.8608 -110.5403 32° Northeast 243 280 19,000 -60 Descending Salt Lake Center
11:50AM 42.9181 -110.4892 33° Northeast 251 289 19,000  Level Salt Lake Center
11:51AM 42.9853 -110.4308 32° Northeast 256 295 19,000  Level Salt Lake Center
11:52AM 43.0419 -110.3817 32° Northeast 255 293 19,000  Level Salt Lake Center
11:53AM 43.1067 -110.3233 33° Northeast 250 288 19,100  Climbing Salt Lake Center
11:54AM 43.1625 -110.2725 34° Northeast 252 290 19,000  Descending Salt Lake Center
11:55AM 43.2292 -110.2131 33° Northeast 255 293 19,100  Climbing Salt Lake Center
11:56AM 43.2817 -110.1628 35° Northeast 261 300 19,100  Level Salt Lake Center
11:57AM 43.3531 -110.1003 32° Northeast 256 295 19,100  Level Salt Lake Center
11:58AM 43.4083 -110.0519 32° Northeast 254 292 19,100  Level Salt Lake Center
11:59AM 43.4764 -109.9917 33° Northeast 256 295 19,100  Level Salt Lake Center
12:00PM 43.5300 -109.9397 35° Northeast 254 292 19,100 -60 Level Salt Lake Center
12:01PM 43.5875 -109.8844 35° Northeast 254 292 19,000 -240 Descending Salt Lake Center
12:02PM 43.6517 -109.8275 33° Northeast 252 290 18,700 -420 Descending Salt Lake Center
12:03PM 43.7192 -109.7667 33° Northeast 256 295 18,200 -300 Descending Salt Lake Center
12:05PM 43.7786 -109.7136 33° Northeast 258 297 18,100 -300 Descending Salt Lake Center
12:06PM 43.8186 -109.6350 55° Northeast 254 292 17,600 -480 Descending Salt Lake Center
12:07PM 43.8808 -109.5825 31° Northeast 252 290 17,200 -360 Descending Salt Lake Center
12:08PM 43.9442 -109.5233 34° Northeast 249 287 16,900 -300 Descending Salt Lake Center
12:09PM 43.9953 -109.4739 35° Northeast 244 281 16,600 -480 Descending Salt Lake Center
12:10PM 44.0550 -109.4217 32° Northeast 236 272 16,000 -720 Descending Salt Lake Center
12:11PM 44.1061 -109.3767 32° Northeast 232 267 15,200 -780 Descending Salt Lake Center